Time;durP1;ratioP1;P1;durP2;ratioP2;P2;SDS_P1;SDS_P2;PMS_P1;PMS_P2;Temp;Humidity;BMP_temperature;BMP_pressure;BME280_temperature;BME280_humidity;BME280_pressure;Samples;Min_cycle;Max_cycle;Signal;HPM_P1;HPM_P2
2022/06/22 00:01:15;;;;;;;12.65;8.85;;;;;;;;;;4928224;29;20055;-70
2022/06/22 00:03:44;;;;;;;11.38;7.18;;;;;;;;;;4926493;28;21040;-70
2022/06/22 00:06:18;;;;;;;12.05;7.38;;;;;;;;;;4952311;28;20055;-70
2022/06/22 00:08:46;;;;;;;11.85;7.72;;;;;;;;;;4945337;28;20509;-71
2022/06/22 00:11:15;;;;;;;12.40;7.68;;;;;;;;;;4945814;28;20133;-71
2022/06/22 00:13:46;;;;;;;12.57;7.20;;;;;;;;;;4946720;28;20062;-71
2022/06/22 00:16:17;;;;;;;10.98;7.32;;;;;;;;;;4943781;28;20043;-70
2022/06/22 00:18:46;;;;;;;9.98;7.03;;;;;;;;;;4958557;28;20061;-70
2022/06/22 00:21:18;;;;;;;10.35;6.80;;;;;;;;;;4960509;28;20046;-70
2022/06/22 00:23:46;;;;;;;11.75;6.88;;;;;;;;;;4947189;28;20100;-70
2022/06/22 00:26:20;;;;;;;9.57;6.45;;;;;;;;;;4939969;28;20113;-70
2022/06/22 00:28:55;;;;;;;8.88;7.10;;;;;;;;;;4946804;28;20532;-70
2022/06/22 00:31:25;;;;;;;11.60;6.95;;;;;;;;;;4941582;28;20043;-70
2022/06/22 00:34:03;;;;;;;13.70;6.78;;;;;;;;;;4947577;28;20055;-70
2022/06/22 00:36:33;;;;;;;11.45;7.85;;;;;;;;;;4943787;28;20055;-70
2022/06/22 00:39:09;;;;;;;11.02;7.63;;;;;;;;;;4946371;28;20050;-70
2022/06/22 00:41:37;;;;;;;18.23;8.02;;;;;;;;;;4945714;28;20125;-70
2022/06/22 00:44:07;;;;;;;14.43;8.55;;;;;;;;;;4964918;28;20051;-70
2022/06/22 00:46:35;;;;;;;17.23;8.45;;;;;;;;;;4942769;28;20541;-70
2022/06/22 00:49:08;;;;;;;12.80;7.72;;;;;;;;;;4944534;28;20061;-70
2022/06/22 00:51:35;;;;;;;;;;;;;;;;;;4947808;28;20059;-70
2022/06/22 00:54:05;;;;;;;12.77;7.32;;;;;;;;;;4959392;28;19922;-70
2022/06/22 00:56:39;;;;;;;14.15;7.57;;;;;;;;;;4947686;28;20113;-70
2022/06/22 00:59:14;;;;;;;10.38;7.55;;;;;;;;;;4948269;28;20595;-70
2022/06/22 01:01:45;;;;;;;11.55;8.25;;;;;;;;;;4947272;28;20080;-70
2022/06/22 01:04:17;;;;;;;9.65;7.13;;;;;;;;;;4948555;28;20050;-71
2022/06/22 01:06:46;;;;;;;13.70;8.15;;;;;;;;;;4944665;28;20051;-71
2022/06/22 01:09:17;;;;;;;9.75;6.90;;;;;;;;;;4947405;28;20485;-71
2022/06/22 01:14:39;;;;;;;11.77;8.00;;;;;;;;;;4945604;28;20057;-71
2022/06/22 01:17:06;;;;;;;;;;;;;;;;;;4946064;28;20059;-70
2022/06/22 01:19:52;;;;;;;11.13;7.25;;;;;;;;;;4930623;28;19977;-70
2022/06/22 01:22:27;;;;;;;10.10;6.25;;;;;;;;;;4947762;28;20484;-70
2022/06/22 01:24:59;;;;;;;14.40;7.68;;;;;;;;;;4945138;28;20070;-70
2022/06/22 01:27:33;;;;;;;11.05;7.95;;;;;;;;;;4946927;28;20118;-70
2022/06/22 01:30:02;;;;;;;12.45;7.22;;;;;;;;;;4947075;28;20062;-70
2022/06/22 01:32:31;;;;;;;13.85;7.68;;;;;;;;;;4943070;28;20443;-70
2022/06/22 01:34:59;;;;;;;9.45;7.35;;;;;;;;;;4950658;28;20067;-70
2022/06/22 01:37:28;;;;;;;8.32;5.90;;;;;;;;;;4944752;28;20063;-70
2022/06/22 01:39:58;;;;;;;7.00;4.53;;;;;;;;;;4951133;28;20142;-70
2022/06/22 01:42:29;;;;;;;7.05;4.90;;;;;;;;;;4949224;28;20846;-70
2022/06/22 01:44:58;;;;;;;7.97;4.53;;;;;;;;;;4950570;28;20102;-70
2022/06/22 01:47:28;;;;;;;7.28;4.80;;;;;;;;;;4946071;28;20057;-70
2022/06/22 01:50:00;;;;;;;9.18;3.75;;;;;;;;;;4952255;28;20499;-70
2022/06/22 01:52:37;;;;;;;5.95;3.70;;;;;;;;;;4946786;29;20138;-70
2022/06/22 01:55:07;;;;;;;6.32;4.25;;;;;;;;;;4949708;28;20154;-70
2022/06/22 01:57:36;;;;;;;6.30;4.82;;;;;;;;;;4949547;28;20061;-70
2022/06/22 02:00:07;;;;;;;8.07;5.25;;;;;;;;;;4963297;28;20059;-70
2022/06/22 02:02:37;;;;;;;6.75;4.97;;;;;;;;;;4948115;28;20062;-70
2022/06/22 02:05:06;;;;;;;7.32;5.15;;;;;;;;;;4946786;28;20047;-70
2022/06/22 02:07:44;;;;;;;10.43;5.90;;;;;;;;;;4946766;28;20597;-70
2022/06/22 02:10:17;;;;;;;9.40;6.15;;;;;;;;;;4945415;28;20051;-70
2022/06/22 02:12:47;;;;;;;9.55;5.28;;;;;;;;;;4950318;28;20417;-70
2022/06/22 02:15:19;;;;;;;9.73;5.93;;;;;;;;;;4947980;28;20422;-70
2022/06/22 02:17:47;;;;;;;11.10;6.38;;;;;;;;;;4951292;28;20058;-70
2022/06/22 02:20:32;;;;;;;9.38;6.00;;;;;;;;;;4946375;28;20055;-70
2022/06/22 02:23:04;;;;;;;7.30;5.50;;;;;;;;;;4933546;29;20131;-70
2022/06/22 02:25:33;;;;;;;8.07;6.18;;;;;;;;;;4948057;28;20065;-70
2022/06/22 02:28:00;;;;;;;10.57;7.70;;;;;;;;;;4950779;28;20539;-70
2022/06/22 02:30:28;;;;;;;13.95;7.22;;;;;;;;;;4944999;28;20073;-70
2022/06/22 02:32:56;;;;;;;8.63;6.93;;;;;;;;;;4951882;28;20106;-70
2022/06/22 02:35:23;;;;;;;10.07;7.18;;;;;;;;;;4951778;28;20054;-70
2022/06/22 02:37:51;;;;;;;12.63;8.32;;;;;;;;;;4948003;28;20058;-70
2022/06/22 02:40:21;;;;;;;16.63;9.27;;;;;;;;;;4952233;28;20050;-70
2022/06/22 02:45:36;;;;;;;8.23;5.57;;;;;;;;;;4943800;29;20062;-70
2022/06/22 02:48:15;;;;;;;10.90;6.20;;;;;;;;;;4954211;28;20062;-70
2022/06/22 02:50:44;;;;;;;8.90;5.93;;;;;;;;;;4948967;28;20058;-70
2022/06/22 02:53:16;;;;;;;14.27;7.05;;;;;;;;;;4950557;28;20054;-70
2022/06/22 02:55:43;;;;;;;12.60;6.30;;;;;;;;;;4949740;28;20390;-70
2022/06/22 02:58:22;;;;;;;11.32;7.65;;;;;;;;;;4944453;28;20516;-70
2022/06/22 03:00:51;;;;;;;16.63;8.52;;;;;;;;;;4948906;28;20062;-70
2022/06/22 03:03:20;;;;;;;18.05;9.48;;;;;;;;;;4947984;28;20062;-70
2022/06/22 03:05:48;;;;;;;13.63;8.32;;;;;;;;;;4963546;28;20055;-70
2022/06/22 03:08:18;;;;;;;14.00;9.10;;;;;;;;;;4947797;28;20086;-70
2022/06/22 03:10:46;;;;;;;13.07;9.20;;;;;;;;;;4947483;28;20058;-70
2022/06/22 03:13:15;;;;;;;15.20;9.00;;;;;;;;;;4943750;28;20051;-70
2022/06/22 03:15:42;;;;;;;14.60;8.88;;;;;;;;;;4950626;28;20058;-70
2022/06/22 03:18:14;;;;;;;11.50;8.27;;;;;;;;;;4945389;28;20110;-70
2022/06/22 03:20:47;;;;;;;16.27;9.88;;;;;;;;;;4949130;28;20065;-70
2022/06/22 03:23:17;;;;;;;14.13;9.87;;;;;;;;;;4945121;28;20544;-70
2022/06/22 03:25:49;;;;;;;15.57;8.73;;;;;;;;;;4943754;28;20886;-70
2022/06/22 03:28:18;;;;;;;10.90;7.07;;;;;;;;;;4947383;28;20146;-70
2022/06/22 03:30:48;;;;;;;9.63;6.57;;;;;;;;;;4938208;28;20046;-70
2022/06/22 03:33:20;;;;;;;8.73;5.85;;;;;;;;;;4939376;28;20568;-70
2022/06/22 03:35:49;;;;;;;7.18;5.07;;;;;;;;;;4958217;28;20051;-70
2022/06/22 03:38:18;;;;;;;10.80;5.95;;;;;;;;;;4946618;28;20062;-70
2022/06/22 03:40:48;;;;;;;9.88;6.70;;;;;;;;;;4938683;28;20055;-70
2022/06/22 03:43:17;;;;;;;8.95;6.03;;;;;;;;;;4940473;28;20059;-70
2022/06/22 03:45:47;;;;;;;10.27;6.55;;;;;;;;;;4938950;28;20453;-70
2022/06/22 03:48:17;;;;;;;10.02;7.35;;;;;;;;;;4940624;28;20055;-70
2022/06/22 03:50:49;;;;;;;16.67;8.52;;;;;;;;;;4941793;28;20065;-70
2022/06/22 03:53:19;;;;;;;10.63;8.23;;;;;;;;;;4940277;28;20693;-70
2022/06/22 03:55:48;;;;;;;14.80;9.80;;;;;;;;;;4957263;28;20061;-70
2022/06/22 03:58:16;;;;;;;17.05;10.57;;;;;;;;;;4943030;28;20046;-70
2022/06/22 04:00:45;;;;;;;12.07;8.88;;;;;;;;;;4942117;28;20046;-70
2022/06/22 04:03:13;;;;;;;11.20;8.15;;;;;;;;;;4941935;28;20061;-70
2022/06/22 04:05:42;;;;;;;15.65;9.10;;;;;;;;;;4943278;28;20067;-70
2022/06/22 04:08:15;;;;;;;16.17;9.52;;;;;;;;;;4948633;28;20059;-70
2022/06/22 04:10:44;;;;;;;13.10;9.80;;;;;;;;;;4945005;28;20113;-70
2022/06/22 04:13:14;;;;;;;19.55;12.38;;;;;;;;;;4946442;28;20050;-70
2022/06/22 04:15:45;;;;;;;16.80;11.63;;;;;;;;;;4947472;28;20509;-70
2022/06/22 04:18:16;;;;;;;19.02;13.00;;;;;;;;;;4943561;28;20379;-70
2022/06/22 04:20:51;;;;;;;21.60;12.77;;;;;;;;;;4946694;28;20050;-70
2022/06/22 04:23:24;;;;;;;17.17;10.80;;;;;;;;;;4947990;28;20150;-70
2022/06/22 04:25:53;;;;;;;22.70;13.48;;;;;;;;;;4945646;28;20402;-70
2022/06/22 04:28:21;;;;;;;16.08;11.95;;;;;;;;;;4944182;28;20058;-70
2022/06/22 04:30:49;;;;;;;19.05;11.25;;;;;;;;;;4948029;28;20263;-70
2022/06/22 04:33:19;;;;;;;17.30;12.23;;;;;;;;;;4942388;28;20055;-70
2022/06/22 04:35:50;;;;;;;19.05;10.57;;;;;;;;;;4946047;29;20059;-70
2022/06/22 04:38:20;;;;;;;18.05;11.77;;;;;;;;;;4944549;28;20054;-70
2022/06/22 04:40:54;;;;;;;16.77;11.95;;;;;;;;;;4948672;28;20110;-70
2022/06/22 04:43:22;;;;;;;15.63;11.43;;;;;;;;;;4942080;29;20122;-70
2022/06/22 04:45:50;;;;;;;14.05;9.68;;;;;;;;;;4945356;28;20386;-70
2022/06/22 04:48:20;;;;;;;12.43;10.05;;;;;;;;;;4949556;28;20066;-70
2022/06/22 04:50:48;;;;;;;15.95;10.13;;;;;;;;;;4946129;28;20113;-70
2022/06/22 04:53:18;;;;;;;13.70;10.15;;;;;;;;;;4950075;28;20043;-70
2022/06/22 04:55:45;;;;;;;20.15;11.63;;;;;;;;;;4944017;28;20437;-70
2022/06/22 04:58:21;;;;;;;18.67;11.65;;;;;;;;;;4948505;28;20054;-70
2022/06/22 05:00:48;;;;;;;17.73;12.15;;;;;;;;;;4944571;28;20058;-70
2022/06/22 05:03:16;;;;;;;16.55;9.90;;;;;;;;;;4948597;28;20050;-70
2022/06/22 05:05:43;;;;;;;15.50;10.57;;;;;;;;;;4945800;28;20417;-70
2022/06/22 05:08:15;;;;;;;25.08;12.23;;;;;;;;;;4948554;28;20390;-70
2022/06/22 05:10:45;;;;;;;23.63;10.90;;;;;;;;;;4945039;28;20109;-70
2022/06/22 05:13:14;;;;;;;14.73;9.02;;;;;;;;;;4946283;28;20043;-70
2022/06/22 05:15:44;;;;;;;21.25;10.02;;;;;;;;;;4947943;28;20055;-70
2022/06/22 05:18:13;;;;;;;21.55;10.27;;;;;;;;;;4941783;28;20109;-70
2022/06/22 05:20:45;;;;;;;22.13;9.70;;;;;;;;;;4944979;28;20074;-70
2022/06/22 05:23:13;;;;;;;28.27;10.60;;;;;;;;;;4947447;28;20161;-70
2022/06/22 05:25:43;;;;;;;17.13;9.82;;;;;;;;;;4944866;28;20066;-70
2022/06/22 05:28:12;;;;;;;16.83;10.13;;;;;;;;;;4944006;28;21560;-70
2022/06/22 05:30:42;;;;;;;16.55;10.70;;;;;;;;;;4965310;28;20133;-71
2022/06/22 05:33:12;;;;;;;15.35;10.68;;;;;;;;;;4946561;28;20074;-70
2022/06/22 05:35:42;;;;;;;16.60;11.13;;;;;;;;;;4946485;28;20063;-71
2022/06/22 05:38:10;;;;;;;18.88;10.30;;;;;;;;;;4941936;28;20059;-71
2022/06/22 05:40:40;;;;;;;17.70;10.23;;;;;;;;;;4947209;28;20564;-71
2022/06/22 05:43:07;;;;;;;21.33;12.07;;;;;;;;;;4946125;28;20086;-71
2022/06/22 05:45:37;;;;;;;16.17;10.45;;;;;;;;;;4947096;28;20385;-71
2022/06/22 05:48:05;;;;;;;19.92;11.80;;;;;;;;;;4945389;28;20058;-71
2022/06/22 05:50:38;;;;;;;20.92;10.77;;;;;;;;;;4948796;28;20050;-71
2022/06/22 05:53:08;;;;;;;18.83;11.30;;;;;;;;;;4946264;28;20491;-71
2022/06/22 05:55:40;;;;;;;17.83;10.85;;;;;;;;;;4944657;28;20059;-71
2022/06/22 05:58:11;;;;;;;17.15;11.05;;;;;;;;;;4944951;28;20367;-71
2022/06/22 06:00:44;;;;;;;16.42;10.43;;;;;;;;;;4946686;28;20750;-71
2022/06/22 06:03:25;;;;;;;17.97;12.03;;;;;;;;;;4940589;28;20099;-71
2022/06/22 06:05:57;;;;;;;22.15;11.45;;;;;;;;;;4945702;28;20051;-71
2022/06/22 06:08:26;;;;;;;15.48;10.13;;;;;;;;;;4947476;28;20059;-71
2022/06/22 06:10:53;;;;;;;24.10;11.45;;;;;;;;;;4939609;28;20105;-71
2022/06/22 06:13:22;;;;;;;20.88;11.05;;;;;;;;;;4945305;28;20109;-71
2022/06/22 06:15:52;;;;;;;16.27;11.43;;;;;;;;;;4941109;28;20069;-71
2022/06/22 06:18:22;;;;;;;18.50;9.50;;;;;;;;;;4948682;28;20042;-71
2022/06/22 06:20:51;;;;;;;19.30;9.65;;;;;;;;;;4944780;28;20059;-71
2022/06/22 06:23:22;;;;;;;18.85;9.23;;;;;;;;;;4950862;28;20417;-71
2022/06/22 06:28:39;;;;;;;24.45;9.05;;;;;;;;;;4961957;28;20070;-71
2022/06/22 06:31:09;;;;;;;19.83;9.43;;;;;;;;;;4942423;28;20054;-71
2022/06/22 06:33:37;;;;;;;17.00;8.98;;;;;;;;;;4946815;28;20054;-71
2022/06/22 06:36:08;;;;;;;15.70;8.55;;;;;;;;;;4942421;28;20055;-71
2022/06/22 06:38:39;;;;;;;18.50;9.60;;;;;;;;;;4945176;28;20109;-71
2022/06/22 06:41:09;;;;;;;19.10;9.68;;;;;;;;;;4962511;28;20047;-71
2022/06/22 06:43:39;;;;;;;16.67;8.55;;;;;;;;;;4939267;28;20087;-71
2022/06/22 06:46:11;;;;;;;17.73;10.07;;;;;;;;;;4943288;28;20070;-71
2022/06/22 06:48:39;;;;;;;16.20;8.85;;;;;;;;;;4948629;28;20111;-71
2022/06/22 06:51:07;;;;;;;17.92;8.00;;;;;;;;;;4948961;28;20493;-71
2022/06/22 06:53:39;;;;;;;16.90;8.93;;;;;;;;;;4948584;28;20047;-71
2022/06/22 06:56:13;;;;;;;17.60;8.77;;;;;;;;;;4946035;28;20063;-71
2022/06/22 06:58:42;;;;;;;12.35;7.05;;;;;;;;;;4945894;28;20059;-71
2022/06/22 07:01:10;;;;;;;16.35;8.75;;;;;;;;;;4943505;28;20082;-71
2022/06/22 07:03:39;;;;;;;14.02;7.70;;;;;;;;;;4945917;28;20055;-71
2022/06/22 07:06:07;;;;;;;14.35;7.07;;;;;;;;;;4944969;28;20062;-71
2022/06/22 07:08:36;;;;;;;11.45;6.78;;;;;;;;;;4943815;28;20054;-71
2022/06/22 07:11:04;;;;;;;14.70;7.95;;;;;;;;;;4947707;28;20047;-71
2022/06/22 07:13:35;;;;;;;14.40;7.97;;;;;;;;;;4945540;28;20051;-71
2022/06/22 07:16:06;;;;;;;15.63;8.70;;;;;;;;;;4945846;28;20054;-71
2022/06/22 07:18:35;;;;;;;19.48;8.32;;;;;;;;;;4944071;28;20051;-71
2022/06/22 07:21:12;;;;;;;16.63;7.88;;;;;;;;;;4942615;28;20046;-71
2022/06/22 07:23:42;;;;;;;12.52;7.57;;;;;;;;;;4945234;28;20454;-71
2022/06/22 07:26:13;;;;;;;17.80;7.15;;;;;;;;;;4942733;28;20050;-71
2022/06/22 07:28:44;;;;;;;18.85;8.27;;;;;;;;;;4943272;28;20058;-71
2022/06/22 07:31:15;;;;;;;15.07;6.95;;;;;;;;;;4944273;28;20114;-71
2022/06/22 07:33:45;;;;;;;13.15;6.22;;;;;;;;;;4943291;28;20051;-71
2022/06/22 07:36:16;;;;;;;13.25;6.82;;;;;;;;;;4942507;28;20062;-71
2022/06/22 07:38:45;;;;;;;15.63;6.43;;;;;;;;;;4949974;28;20461;-71
2022/06/22 07:41:19;;;;;;;16.42;6.78;;;;;;;;;;4950819;28;20379;-71
2022/06/22 07:43:49;;;;;;;13.57;5.90;;;;;;;;;;4949290;28;20051;-71
2022/06/22 07:46:19;;;;;;;15.25;6.15;;;;;;;;;;4951067;28;20047;-71
2022/06/22 07:48:49;;;;;;;15.38;5.97;;;;;;;;;;4950726;28;20054;-71
2022/06/22 07:51:22;;;;;;;14.20;6.38;;;;;;;;;;4947756;28;20492;-71
2022/06/22 07:53:51;;;;;;;15.63;6.20;;;;;;;;;;4949008;28;20134;-71
2022/06/22 07:56:23;;;;;;;14.40;5.57;;;;;;;;;;4948761;28;20065;-71
2022/06/22 07:58:54;;;;;;;14.00;6.65;;;;;;;;;;4949207;28;20074;-71
2022/06/22 08:01:25;;;;;;;16.77;6.80;;;;;;;;;;4946427;28;20050;-71
2022/06/22 08:03:55;;;;;;;13.10;5.47;;;;;;;;;;4949935;28;20455;-71
2022/06/22 08:06:25;;;;;;;15.55;7.65;;;;;;;;;;4945648;28;20122;-71
2022/06/22 08:08:55;;;;;;;14.10;7.13;;;;;;;;;;4951723;28;20055;-71
2022/06/22 08:11:26;;;;;;;19.38;7.53;;;;;;;;;;4947350;28;20059;-71
2022/06/22 08:13:58;;;;;;;13.60;7.13;;;;;;;;;;4947801;28;20470;-71
2022/06/22 08:16:28;;;;;;;16.55;6.97;;;;;;;;;;4945934;28;20130;-71
2022/06/22 08:18:55;;;;;;;16.38;6.03;;;;;;;;;;4944836;28;20088;-71
2022/06/22 08:21:23;;;;;;;12.07;5.80;;;;;;;;;;4948621;28;20058;-71
2022/06/22 08:23:51;;;;;;;18.30;6.93;;;;;;;;;;4946881;28;20055;-71
2022/06/22 08:26:20;;;;;;;11.48;5.45;;;;;;;;;;4938698;28;20062;-71
2022/06/22 08:28:48;;;;;;;13.70;5.90;;;;;;;;;;4943439;28;20117;-71
2022/06/22 08:31:16;;;;;;;12.00;6.32;;;;;;;;;;4946293;28;21412;-71
2022/06/22 08:33:46;;;;;;;17.55;6.43;;;;;;;;;;4946369;28;20074;-71
2022/06/22 08:36:16;;;;;;;15.88;6.00;;;;;;;;;;4946716;28;20050;-71
2022/06/22 08:38:46;;;;;;;16.60;6.00;;;;;;;;;;4949179;28;20697;-71
2022/06/22 08:41:24;;;;;;;11.50;5.35;;;;;;;;;;4948322;28;20054;-71
2022/06/22 08:43:56;;;;;;;13.25;5.28;;;;;;;;;;4948893;28;20505;-71
2022/06/22 08:46:37;;;;;;;14.75;5.28;;;;;;;;;;4941764;28;20074;-71
2022/06/22 08:49:10;;;;;;;12.55;5.90;;;;;;;;;;4946209;28;20066;-71
2022/06/22 08:51:47;;;;;;;10.32;5.32;;;;;;;;;;4947831;28;20054;-71
2022/06/22 08:54:29;;;;;;;9.98;5.30;;;;;;;;;;4943629;28;20050;-71
2022/06/22 08:56:59;;;;;;;14.35;5.25;;;;;;;;;;4942172;28;20055;-71
2022/06/22 08:59:37;;;;;;;10.32;4.82;;;;;;;;;;4947499;28;20061;-71
2022/06/22 09:02:14;;;;;;;14.10;5.35;;;;;;;;;;4946832;28;20097;-71
2022/06/22 09:05:05;;;;;;;10.13;4.43;;;;;;;;;;4939358;28;20051;-71
2022/06/22 09:07:56;;;;;;;10.63;4.15;;;;;;;;;;4932475;28;20165;-71
2022/06/22 09:10:32;;;;;;;11.93;4.47;;;;;;;;;;4922622;28;20069;-71
2022/06/22 09:13:06;;;;;;;9.00;4.10;;;;;;;;;;4945946;28;20055;-71
2022/06/22 09:15:40;;;;;;;13.98;4.80;;;;;;;;;;4939350;28;20158;-71
2022/06/22 09:18:21;;;;;;;10.13;4.85;;;;;;;;;;4945205;28;20498;-71
2022/06/22 09:20:56;;;;;;;11.43;4.55;;;;;;;;;;4938944;28;20062;-71
2022/06/22 09:23:30;;;;;;;12.98;5.20;;;;;;;;;;4945096;28;20047;-71
2022/06/22 09:26:06;;;;;;;11.93;4.32;;;;;;;;;;4942946;28;20061;-71
2022/06/22 09:28:40;;;;;;;10.65;4.93;;;;;;;;;;4946676;28;20047;-71
2022/06/22 09:31:19;;;;;;;10.05;5.13;;;;;;;;;;4947426;28;20047;-71
2022/06/22 09:33:55;;;;;;;12.38;4.70;;;;;;;;;;4947009;28;20043;-71
2022/06/22 09:36:30;;;;;;;11.57;5.38;;;;;;;;;;4945873;28;20054;-71
2022/06/22 09:39:03;;;;;;;12.75;5.28;;;;;;;;;;4945842;28;20055;-71
2022/06/22 09:41:38;;;;;;;11.25;4.75;;;;;;;;;;4945190;28;20055;-71
2022/06/22 09:44:12;;;;;;;12.52;5.03;;;;;;;;;;4941104;28;20489;-71
2022/06/22 09:46:54;;;;;;;11.23;4.65;;;;;;;;;;4948020;28;20059;-71
2022/06/22 09:49:31;;;;;;;12.90;4.95;;;;;;;;;;4945237;28;20051;-71
2022/06/22 09:52:03;;;;;;;13.82;5.30;;;;;;;;;;4949880;28;20051;-71
2022/06/22 09:57:42;;;;;;;8.70;3.92;;;;;;;;;;4950231;28;20157;-71
2022/06/22 10:00:12;;;;;;;11.60;4.10;;;;;;;;;;4950135;28;20050;-71
2022/06/22 10:03:01;;;;;;;13.50;4.50;;;;;;;;;;4949399;28;20121;-71
2022/06/22 10:05:54;;;;;;;14.35;4.65;;;;;;;;;;4949964;28;20164;-71
2022/06/22 10:08:29;;;;;;;9.95;4.40;;;;;;;;;;4946813;28;20741;-71
2022/06/22 10:11:04;;;;;;;12.30;4.25;;;;;;;;;;4948375;28;20544;-71
2022/06/22 10:13:40;;;;;;;15.15;4.70;;;;;;;;;;4951954;28;20387;-71
2022/06/22 10:16:21;;;;;;;11.35;3.90;;;;;;;;;;4949904;28;20112;-71
2022/06/22 10:18:59;;;;;;;12.70;4.20;;;;;;;;;;4949071;28;20124;-71
2022/06/22 10:21:32;;;;;;;11.50;4.70;;;;;;;;;;4950406;28;20055;-71
2022/06/22 10:23:59;;;;;;;;;;;;;;;;;;4950366;28;20469;-71
2022/06/22 10:26:34;;;;;;;9.32;4.10;;;;;;;;;;4948570;28;19933;-71
2022/06/22 10:29:17;;;;;;;12.50;4.60;;;;;;;;;;4951348;28;20047;-71
2022/06/22 10:31:52;;;;;;;12.68;4.78;;;;;;;;;;4949244;28;20062;-71
2022/06/22 10:34:31;;;;;;;10.48;4.80;;;;;;;;;;4967143;28;20047;-71
2022/06/22 10:37:16;;;;;;;12.02;4.80;;;;;;;;;;4950150;28;20137;-71
2022/06/22 10:39:56;;;;;;;10.98;4.72;;;;;;;;;;4951803;28;20058;-71
2022/06/22 10:45:27;;;;;;;11.93;4.68;;;;;;;;;;4950505;28;20070;-71
2022/06/22 10:48:24;;;;;;;15.32;4.40;;;;;;;;;;4950287;28;20782;-71
2022/06/22 10:50:56;;;;;;;13.73;4.05;;;;;;;;;;4948643;28;20050;-71
2022/06/22 10:53:38;;;;;;;13.65;5.10;;;;;;;;;;4965752;28;20479;-71
2022/06/22 10:56:10;;;;;;;17.40;5.40;;;;;;;;;;4944867;28;20055;-71
2022/06/22 10:58:51;;;;;;;16.05;4.68;;;;;;;;;;4948282;28;20469;-72
2022/06/22 11:01:30;;;;;;;12.68;4.55;;;;;;;;;;4948575;28;20051;-72
2022/06/22 11:04:08;;;;;;;11.65;5.00;;;;;;;;;;4949416;28;20046;-72
2022/06/22 11:06:49;;;;;;;12.25;5.00;;;;;;;;;;4947437;28;20066;-72
2022/06/22 11:09:31;;;;;;;14.55;5.28;;;;;;;;;;4950086;28;20059;-72
2022/06/22 11:12:09;;;;;;;13.07;4.60;;;;;;;;;;4948628;28;20051;-72
2022/06/22 11:14:54;;;;;;;10.38;5.07;;;;;;;;;;4948485;28;20062;-72
2022/06/22 11:17:35;;;;;;;10.15;4.50;;;;;;;;;;4947154;28;20047;-72
2022/06/22 11:20:29;;;;;;;12.18;4.70;;;;;;;;;;4949615;28;20054;-72
2022/06/22 11:23:02;;;;;;;9.65;4.40;;;;;;;;;;4950545;28;20059;-72
2022/06/22 11:31:27;;;;;;;11.15;4.75;;;;;;;;;;4946061;28;20065;-72
2022/06/22 11:34:09;;;;;;;8.73;4.40;;;;;;;;;;4950015;28;20461;-72
2022/06/22 11:36:42;;;;;;;9.45;4.28;;;;;;;;;;4947036;28;20119;-72
2022/06/22 11:39:18;;;;;;;11.07;4.13;;;;;;;;;;4950081;28;20046;-72
2022/06/22 11:42:04;;;;;;;11.48;4.85;;;;;;;;;;4950451;28;20061;-72
2022/06/22 11:45:50;;;;;;;11.82;4.50;;;;;;;;;;4947716;28;20061;-72
2022/06/22 11:47:44;;;;;;;13.38;4.78;;;;;;;;;;4946343;28;20154;-72
2022/06/22 11:50:19;;;;;;;10.05;5.15;;;;;;;;;;4949037;28;20477;-72
2022/06/22 11:52:51;;;;;;;6.93;4.32;;;;;;;;;;4948525;28;20051;-72
2022/06/22 11:55:29;;;;;;;13.05;4.15;;;;;;;;;;4948337;28;20094;-72
2022/06/22 11:58:19;;;;;;;9.98;4.00;;;;;;;;;;4950804;28;20470;-72
2022/06/22 12:00:54;;;;;;;10.90;4.57;;;;;;;;;;4947047;28;20434;-72
2022/06/22 12:03:40;;;;;;;9.95;4.30;;;;;;;;;;4950034;28;20058;-72
2022/06/22 12:06:12;;;;;;;10.80;4.35;;;;;;;;;;4948946;28;20047;-72
2022/06/22 12:08:45;;;;;;;10.88;4.30;;;;;;;;;;4949949;28;20525;-72
2022/06/22 12:11:15;;;;;;;10.52;4.63;;;;;;;;;;4943955;28;20059;-72
2022/06/22 12:16:31;;;;;;;9.82;4.25;;;;;;;;;;4948440;28;20453;-72
2022/06/22 12:19:08;;;;;;;11.43;4.80;;;;;;;;;;4949580;28;20051;-72
2022/06/22 12:21:48;;;;;;;9.88;4.65;;;;;;;;;;4946750;28;20066;-72
2022/06/22 12:24:28;;;;;;;14.15;4.55;;;;;;;;;;4941961;28;20059;-72
2022/06/22 12:26:59;;;;;;;10.63;5.00;;;;;;;;;;4947486;28;20664;-72
2022/06/22 12:29:59;;;;;;;11.13;4.75;;;;;;;;;;4948968;28;20078;-72
2022/06/22 12:32:29;;;;;;;8.73;4.05;;;;;;;;;;4948537;28;20801;-72
2022/06/22 12:35:04;;;;;;;10.70;5.45;;;;;;;;;;4947650;28;20058;-72
2022/06/22 12:37:35;;;;;;;8.48;4.38;;;;;;;;;;4950435;28;20832;-72
2022/06/22 12:40:04;;;;;;;12.35;4.85;;;;;;;;;;4947301;28;20058;-72
2022/06/22 12:42:39;;;;;;;10.07;4.45;;;;;;;;;;4946417;28;20054;-72
2022/06/22 12:45:21;;;;;;;10.90;5.25;;;;;;;;;;4946278;28;20049;-72
2022/06/22 12:48:06;;;;;;;8.85;4.40;;;;;;;;;;4965896;28;20058;-72
2022/06/22 12:50:43;;;;;;;8.85;4.35;;;;;;;;;;4946382;28;20137;-72
2022/06/22 12:53:12;;;;;;;10.93;4.10;;;;;;;;;;4948897;28;20050;-72
2022/06/22 12:55:41;;;;;;;9.75;5.00;;;;;;;;;;4949500;28;20474;-72
2022/06/22 12:58:10;;;;;;;9.60;4.72;;;;;;;;;;4948681;28;20568;-72
2022/06/22 13:00:41;;;;;;;11.20;5.10;;;;;;;;;;4945956;28;20401;-72
2022/06/22 13:03:10;;;;;;;10.60;5.03;;;;;;;;;;4947676;28;20051;-72
2022/06/22 13:05:37;;;;;;;9.93;5.13;;;;;;;;;;4947105;28;20105;-72
2022/06/22 13:08:08;;;;;;;8.73;4.25;;;;;;;;;;4948327;28;20830;-72
2022/06/22 13:10:36;;;;;;;7.97;4.30;;;;;;;;;;4947892;28;20082;-72
2022/06/22 13:13:04;;;;;;;9.77;4.88;;;;;;;;;;4946469;28;20057;-72
2022/06/22 13:15:36;;;;;;;17.73;5.40;;;;;;;;;;4946508;28;20648;-72
2022/06/22 13:18:07;;;;;;;10.37;4.90;;;;;;;;;;4946674;28;20066;-72
2022/06/22 13:20:40;;;;;;;10.60;5.43;;;;;;;;;;4947559;28;20075;-72
2022/06/22 13:23:13;;;;;;;13.60;4.63;;;;;;;;;;4946992;28;20057;-72
2022/06/22 13:25:41;;;;;;;17.83;4.47;;;;;;;;;;4948049;28;20047;-72
2022/06/22 13:28:21;;;;;;;12.90;4.13;;;;;;;;;;4952070;28;20498;-72
2022/06/22 13:30:50;;;;;;;9.93;4.32;;;;;;;;;;4950689;28;20070;-72
2022/06/22 13:33:20;;;;;;;12.82;4.60;;;;;;;;;;4951198;28;20051;-72
2022/06/22 13:35:50;;;;;;;9.23;3.95;;;;;;;;;;4954104;28;20395;-72
2022/06/22 13:38:28;;;;;;;11.02;4.30;;;;;;;;;;4942249;28;20796;-72
2022/06/22 13:41:00;;;;;;;8.32;4.30;;;;;;;;;;4945655;28;20059;-72
2022/06/22 13:43:35;;;;;;;9.75;4.07;;;;;;;;;;4946604;28;20051;-72
2022/06/22 13:46:10;;;;;;;9.75;4.25;;;;;;;;;;4943849;28;21592;-72
2022/06/22 13:48:40;;;;;;;8.48;4.30;;;;;;;;;;4943323;28;20055;-72
2022/06/22 13:51:19;;;;;;;9.50;4.05;;;;;;;;;;4942116;28;20157;-72
2022/06/22 13:54:10;;;;;;;8.45;3.83;;;;;;;;;;4947416;28;20078;-72
2022/06/22 13:56:42;;;;;;;9.23;3.97;;;;;;;;;;4947580;28;20082;-72
2022/06/22 13:59:09;;;;;;;;;;;;;;;;;;4947450;28;20101;-72
2022/06/22 14:01:39;;;;;;;8.93;3.88;;;;;;;;;;4945093;28;21511;-72
2022/06/22 14:04:10;;;;;;;9.00;3.83;;;;;;;;;;4944873;28;20066;-72
2022/06/22 14:06:39;;;;;;;20.53;3.80;;;;;;;;;;4962948;28;20062;-72
2022/06/22 14:09:11;;;;;;;10.60;3.50;;;;;;;;;;4961696;28;20054;-72
2022/06/22 14:11:42;;;;;;;9.38;4.05;;;;;;;;;;4937314;28;20051;-72
2022/06/22 14:14:15;;;;;;;6.90;3.78;;;;;;;;;;4947530;28;20050;-72
2022/06/22 14:16:45;;;;;;;9.45;4.10;;;;;;;;;;4945344;28;20050;-72
2022/06/22 14:19:16;;;;;;;8.88;3.75;;;;;;;;;;4946503;28;20105;-72
2022/06/22 14:21:46;;;;;;;10.23;3.88;;;;;;;;;;4946819;28;20078;-73
2022/06/22 14:24:18;;;;;;;8.13;3.65;;;;;;;;;;4965981;28;20055;-73
2022/06/22 14:26:57;;;;;;;10.32;3.97;;;;;;;;;;4964730;28;20397;-73
2022/06/22 14:29:29;;;;;;;7.55;3.42;;;;;;;;;;4949103;28;20050;-73
2022/06/22 14:31:56;;;;;;;;;;;;;;;;;;4947954;28;20054;-73
2022/06/22 14:34:30;;;;;;;9.50;3.83;;;;;;;;;;4947789;28;19938;-73
2022/06/22 14:37:01;;;;;;;5.55;3.60;;;;;;;;;;4944812;28;20051;-73
2022/06/22 14:39:34;;;;;;;7.95;3.80;;;;;;;;;;4949445;28;20094;-73
2022/06/22 14:42:03;;;;;;;9.98;3.63;;;;;;;;;;4950941;28;20059;-73
2022/06/22 14:44:40;;;;;;;9.18;4.20;;;;;;;;;;4951526;28;20055;-73
2022/06/22 14:47:11;;;;;;;7.78;4.05;;;;;;;;;;4948658;28;20773;-73
2022/06/22 14:49:42;;;;;;;7.20;3.50;;;;;;;;;;4949343;28;20058;-73
2022/06/22 14:52:12;;;;;;;9.63;4.35;;;;;;;;;;4944254;28;20098;-73
2022/06/22 14:54:44;;;;;;;8.32;3.70;;;;;;;;;;4964083;28;20054;-72
2022/06/22 14:57:15;;;;;;;8.95;4.40;;;;;;;;;;4942409;28;20042;-72
2022/06/22 14:59:50;;;;;;;9.23;4.07;;;;;;;;;;4948145;28;20050;-72
2022/06/22 15:02:20;;;;;;;7.05;4.13;;;;;;;;;;4940055;28;20063;-72
2022/06/22 15:04:49;;;;;;;7.88;3.90;;;;;;;;;;4960393;28;20141;-72
2022/06/22 15:07:19;;;;;;;7.82;3.92;;;;;;;;;;4944923;28;20422;-72
2022/06/22 15:09:52;;;;;;;7.07;3.55;;;;;;;;;;4948784;28;20046;-72
2022/06/22 15:15:16;;;;;;;7.50;3.53;;;;;;;;;;4968520;28;20371;-72
2022/06/22 15:17:46;;;;;;;7.32;3.60;;;;;;;;;;4948062;28;20497;-73
2022/06/22 15:20:18;;;;;;;7.75;3.45;;;;;;;;;;4967939;28;20050;-73
2022/06/22 15:22:49;;;;;;;6.85;3.33;;;;;;;;;;4955128;28;20061;-73
2022/06/22 15:25:22;;;;;;;5.90;3.30;;;;;;;;;;4946360;28;20050;-73
2022/06/22 15:27:51;;;;;;;8.25;3.55;;;;;;;;;;4966525;28;20058;-73
2022/06/22 15:30:19;;;;;;;8.38;3.50;;;;;;;;;;4950867;28;20051;-73